Decoded Metar for LEMD (MADRID in SPAIN) (IATA:MAD) | Meteo·Mobile Aviation Weather
aviador You're here:

LEMD Decoded Metar

MADRID in SPAIN
Report Time2019-07-23 02:30:00
UTC Time2019-07-23 02:53:01
Flight Rules vfr VFR
Wind110° at 05 kt
W.Decomp.*RWY 14: 4.4 kt HW 2.3 kt LCW
RWY 18: 1.9 kt HW 4.6 kt LCW
Visibility9999 m
Phenomena:N/A
Clouds:Few CB 070 Hf
Expected CloudBase > 9,600 ft AGL from Temp-Dew spread
CeilingNone
Temp29°C (ISA +18)
Dew Point05°C (22% RH)
Heat Index27.5°C
AAT26.1°C
QNH1020 hPa
Density Alt3,832 ft
Elevation1,909 ft
Report Wrong Elevation
Raw Report
LEMD 230230Z 11005KT 060V130 9999 FEW070CB 29/05 Q1020 NOSIG=

Extra information for LEMD:More info

Metar Taf Metar & Taf Last 4 Metars F.Rules Stats Wind Profile Meteogram Temp Stats Airport Information Weather charts Add Link Nearby VenuesMetar ALERT Operation Metar Decoded Social comments